sensor_id;sensor_type;location;lat;lon;timestamp;pressure;altitude;pressure_sealevel;temperature;humidity
53514;BME280;39768;54.148;12.174;2023-03-03T00:00:10;102283.81;;;4.43;100.00
53514;BME280;39768;54.148;12.174;2023-03-03T00:04:15;102276.84;;;4.43;100.00
53514;BME280;39768;54.148;12.174;2023-03-03T00:08:18;102279.94;;;4.57;100.00
53514;BME280;39768;54.148;12.174;2023-03-03T00:12:26;102287.97;;;4.61;100.00
53514;BME280;39768;54.148;12.174;2023-03-03T00:16:30;102286.00;;;4.54;100.00
53514;BME280;39768;54.148;12.174;2023-03-03T00:20:38;102286.88;;;4.31;100.00
53514;BME280;39768;54.148;12.174;2023-03-03T00:24:40;102280.47;;;3.99;100.00
53514;BME280;39768;54.148;12.174;2023-03-03T00:28:47;102278.09;;;4.07;100.00
53514;BME280;39768;54.148;12.174;2023-03-03T00:32:49;102275.78;;;4.14;100.00
53514;BME280;39768;54.148;12.174;2023-03-03T00:36:54;102274.75;;;4.35;100.00
53514;BME280;39768;54.148;12.174;2023-03-03T00:40:59;102290.75;;;4.17;100.00
53514;BME280;39768;54.148;12.174;2023-03-03T00:45:20;102282.41;;;4.05;100.00
53514;BME280;39768;54.148;12.174;2023-03-03T00:49:25;102267.50;;;4.28;100.00
53514;BME280;39768;54.148;12.174;2023-03-03T00:53:29;102270.19;;;4.29;100.00
53514;BME280;39768;54.148;12.174;2023-03-03T00:57:30;102262.31;;;4.31;100.00
53514;BME280;39768;54.148;12.174;2023-03-03T01:01:32;102257.66;;;4.71;100.00
53514;BME280;39768;54.148;12.174;2023-03-03T01:05:34;102248.16;;;4.76;100.00
53514;BME280;39768;54.148;12.174;2023-03-03T01:09:37;102250.31;;;4.63;100.00
53514;BME280;39768;54.148;12.174;2023-03-03T01:13:40;102250.72;;;4.49;100.00
53514;BME280;39768;54.148;12.174;2023-03-03T01:17:43;102243.09;;;4.32;100.00
53514;BME280;39768;54.148;12.174;2023-03-03T01:21:45;102240.56;;;4.58;100.00
53514;BME280;39768;54.148;12.174;2023-03-03T01:25:46;102229.81;;;4.52;100.00
53514;BME280;39768;54.148;12.174;2023-03-03T01:29:48;102233.38;;;4.29;100.00
53514;BME280;39768;54.148;12.174;2023-03-03T01:33:49;102233.94;;;4.46;100.00
53514;BME280;39768;54.148;12.174;2023-03-03T01:37:51;102236.06;;;4.81;100.00
53514;BME280;39768;54.148;12.174;2023-03-03T01:41:53;102241.53;;;4.62;100.00
53514;BME280;39768;54.148;12.174;2023-03-03T01:50:03;102240.84;;;4.68;100.00
53514;BME280;39768;54.148;12.174;2023-03-03T01:54:12;102241.16;;;4.77;100.00
53514;BME280;39768;54.148;12.174;2023-03-03T01:58:20;102233.25;;;5.02;100.00
53514;BME280;39768;54.148;12.174;2023-03-03T02:02:24;102243.41;;;4.91;100.00
53514;BME280;39768;54.148;12.174;2023-03-03T02:06:37;102225.69;;;4.60;100.00
53514;BME280;39768;54.148;12.174;2023-03-03T02:10:40;102214.44;;;4.65;100.00
53514;BME280;39768;54.148;12.174;2023-03-03T02:14:44;102220.88;;;4.73;100.00
53514;BME280;39768;54.148;12.174;2023-03-03T02:18:45;102215.09;;;4.57;100.00
53514;BME280;39768;54.148;12.174;2023-03-03T02:22:50;102227.31;;;4.32;100.00
53514;BME280;39768;54.148;12.174;2023-03-03T02:26:54;102216.28;;;3.93;100.00
53514;BME280;39768;54.148;12.174;2023-03-03T02:30:57;102225.16;;;4.20;100.00
53514;BME280;39768;54.148;12.174;2023-03-03T02:35:00;102234.69;;;4.67;100.00
53514;BME280;39768;54.148;12.174;2023-03-03T02:39:18;102230.94;;;4.59;100.00
53514;BME280;39768;54.148;12.174;2023-03-03T02:43:22;102243.44;;;4.41;100.00
53514;BME280;39768;54.148;12.174;2023-03-03T02:47:26;102226.09;;;4.22;100.00
53514;BME280;39768;54.148;12.174;2023-03-03T02:51:27;102219.19;;;4.00;100.00
53514;BME280;39768;54.148;12.174;2023-03-03T02:55:28;102210.00;;;4.13;100.00
53514;BME280;39768;54.148;12.174;2023-03-03T02:59:30;102213.97;;;4.02;100.00
53514;BME280;39768;54.148;12.174;2023-03-03T03:03:39;102209.72;;;4.05;100.00
53514;BME280;39768;54.148;12.174;2023-03-03T03:07:42;102205.53;;;4.10;100.00
53514;BME280;39768;54.148;12.174;2023-03-03T03:11:44;102186.69;;;3.74;100.00
53514;BME280;39768;54.148;12.174;2023-03-03T03:15:47;102191.78;;;3.94;100.00
53514;BME280;39768;54.148;12.174;2023-03-03T03:19:48;102190.66;;;4.11;100.00
53514;BME280;39768;54.148;12.174;2023-03-03T03:23:50;102182.09;;;4.16;100.00
53514;BME280;39768;54.148;12.174;2023-03-03T03:27:52;102174.97;;;4.12;100.00
53514;BME280;39768;54.148;12.174;2023-03-03T03:31:54;102171.44;;;4.12;100.00
53514;BME280;39768;54.148;12.174;2023-03-03T03:35:56;102175.97;;;4.41;100.00
53514;BME280;39768;54.148;12.174;2023-03-03T03:39:59;102174.41;;;4.48;100.00
53514;BME280;39768;54.148;12.174;2023-03-03T03:44:00;102178.00;;;3.99;100.00
53514;BME280;39768;54.148;12.174;2023-03-03T03:48:02;102192.59;;;4.40;100.00
53514;BME280;39768;54.148;12.174;2023-03-03T03:52:05;102185.66;;;4.42;100.00
53514;BME280;39768;54.148;12.174;2023-03-03T03:56:08;102187.34;;;4.16;100.00
53514;BME280;39768;54.148;12.174;2023-03-03T04:00:10;102192.00;;;4.23;100.00
53514;BME280;39768;54.148;12.174;2023-03-03T04:04:17;102183.50;;;4.32;100.00
53514;BME280;39768;54.148;12.174;2023-03-03T04:08:19;102168.03;;;4.16;100.00
53514;BME280;39768;54.148;12.174;2023-03-03T04:12:21;102178.97;;;3.55;100.00
53514;BME280;39768;54.148;12.174;2023-03-03T04:16:22;102170.13;;;4.01;100.00
53514;BME280;39768;54.148;12.174;2023-03-03T04:20:25;102168.75;;;4.10;100.00
53514;BME280;39768;54.148;12.174;2023-03-03T04:24:28;102167.31;;;3.25;100.00
53514;BME280;39768;54.148;12.174;2023-03-03T04:28:29;102164.78;;;3.50;100.00
53514;BME280;39768;54.148;12.174;2023-03-03T04:32:33;102170.09;;;3.75;100.00
53514;BME280;39768;54.148;12.174;2023-03-03T04:36:37;102162.09;;;3.96;100.00
53514;BME280;39768;54.148;12.174;2023-03-03T04:40:40;102163.44;;;3.61;100.00
53514;BME280;39768;54.148;12.174;2023-03-03T04:44:43;102165.94;;;3.58;100.00
53514;BME280;39768;54.148;12.174;2023-03-03T04:48:45;102170.75;;;3.46;100.00
53514;BME280;39768;54.148;12.174;2023-03-03T04:52:47;102174.31;;;3.48;100.00
53514;BME280;39768;54.148;12.174;2023-03-03T04:56:50;102180.88;;;3.14;100.00
53514;BME280;39768;54.148;12.174;2023-03-03T05:00:53;102171.34;;;3.39;100.00
53514;BME280;39768;54.148;12.174;2023-03-03T05:04:55;102171.34;;;3.39;100.00
53514;BME280;39768;54.148;12.174;2023-03-03T05:08:56;102179.28;;;3.18;100.00
53514;BME280;39768;54.148;12.174;2023-03-03T05:12:58;102176.22;;;3.30;100.00
53514;BME280;39768;54.148;12.174;2023-03-03T05:16:59;102169.97;;;3.48;100.00
53514;BME280;39768;54.148;12.174;2023-03-03T05:21:00;102184.56;;;2.97;100.00
53514;BME280;39768;54.148;12.174;2023-03-03T05:25:03;102186.97;;;3.36;100.00
53514;BME280;39768;54.148;12.174;2023-03-03T05:29:05;102180.00;;;2.92;100.00
53514;BME280;39768;54.148;12.174;2023-03-03T05:33:07;102178.50;;;3.21;100.00
53514;BME280;39768;54.148;12.174;2023-03-03T05:37:08;102173.03;;;3.37;100.00
53514;BME280;39768;54.148;12.174;2023-03-03T05:41:10;102182.84;;;2.98;100.00
53514;BME280;39768;54.148;12.174;2023-03-03T05:45:12;102182.34;;;2.86;100.00
53514;BME280;39768;54.148;12.174;2023-03-03T05:49:13;102176.56;;;3.61;100.00
53514;BME280;39768;54.148;12.174;2023-03-03T05:53:15;102177.13;;;3.30;100.00
53514;BME280;39768;54.148;12.174;2023-03-03T05:57:16;102181.34;;;3.25;100.00
53514;BME280;39768;54.148;12.174;2023-03-03T06:01:17;102183.56;;;3.16;100.00
53514;BME280;39768;54.148;12.174;2023-03-03T06:05:19;102188.59;;;3.54;100.00
53514;BME280;39768;54.148;12.174;2023-03-03T06:09:20;102180.66;;;3.77;100.00
53514;BME280;39768;54.148;12.174;2023-03-03T06:13:22;102188.72;;;3.81;100.00
53514;BME280;39768;54.148;12.174;2023-03-03T06:17:24;102188.06;;;3.18;100.00
53514;BME280;39768;54.148;12.174;2023-03-03T06:21:25;102191.09;;;3.75;100.00
53514;BME280;39768;54.148;12.174;2023-03-03T06:25:27;102190.97;;;3.72;100.00
53514;BME280;39768;54.148;12.174;2023-03-03T06:29:28;102181.84;;;3.85;100.00
53514;BME280;39768;54.148;12.174;2023-03-03T06:33:30;102178.78;;;3.97;100.00
53514;BME280;39768;54.148;12.174;2023-03-03T06:37:31;102191.81;;;3.71;100.00
53514;BME280;39768;54.148;12.174;2023-03-03T06:41:33;102192.16;;;3.34;100.00
53514;BME280;39768;54.148;12.174;2023-03-03T06:45:34;102183.53;;;3.37;100.00
53514;BME280;39768;54.148;12.174;2023-03-03T06:49:36;102180.06;;;3.15;100.00
53514;BME280;39768;54.148;12.174;2023-03-03T06:53:37;102175.47;;;3.78;100.00
53514;BME280;39768;54.148;12.174;2023-03-03T06:57:39;102184.13;;;4.00;100.00
53514;BME280;39768;54.148;12.174;2023-03-03T07:01:44;102197.19;;;4.22;100.00
53514;BME280;39768;54.148;12.174;2023-03-03T07:05:45;102204.03;;;4.42;100.00
53514;BME280;39768;54.148;12.174;2023-03-03T07:09:49;102206.88;;;4.48;100.00
53514;BME280;39768;54.148;12.174;2023-03-03T07:13:53;102204.03;;;4.68;100.00
53514;BME280;39768;54.148;12.174;2023-03-03T07:17:55;102213.72;;;4.69;100.00
53514;BME280;39768;54.148;12.174;2023-03-03T07:22:13;102220.00;;;4.23;100.00
53514;BME280;39768;54.148;12.174;2023-03-03T07:26:24;102221.31;;;4.59;100.00
53514;BME280;39768;54.148;12.174;2023-03-03T07:30:29;102226.78;;;4.92;100.00
53514;BME280;39768;54.148;12.174;2023-03-03T07:34:45;102235.78;;;4.99;100.00
53514;BME280;39768;54.148;12.174;2023-03-03T07:38:53;102231.53;;;5.03;100.00
53514;BME280;39768;54.148;12.174;2023-03-03T07:42:55;102245.19;;;4.92;100.00
53514;BME280;39768;54.148;12.174;2023-03-03T07:47:24;102235.88;;;5.02;100.00
53514;BME280;39768;54.148;12.174;2023-03-03T07:51:36;102240.78;;;5.45;100.00
53514;BME280;39768;54.148;12.174;2023-03-03T07:55:39;102229.00;;;4.80;100.00
53514;BME280;39768;54.148;12.174;2023-03-03T07:59:51;102240.34;;;5.05;100.00
53514;BME280;39768;54.148;12.174;2023-03-03T08:03:54;102239.97;;;5.19;100.00
53514;BME280;39768;54.148;12.174;2023-03-03T08:12:37;102235.28;;;6.26;100.00
53514;BME280;39768;54.148;12.174;2023-03-03T08:16:39;102229.16;;;6.27;100.00
53514;BME280;39768;54.148;12.174;2023-03-03T08:20:43;102223.38;;;5.80;100.00
53514;BME280;39768;54.148;12.174;2023-03-03T08:24:46;102226.69;;;6.33;100.00
53514;BME280;39768;54.148;12.174;2023-03-03T08:28:48;102222.03;;;6.23;100.00
53514;BME280;39768;54.148;12.174;2023-03-03T08:32:50;102216.63;;;6.18;100.00
53514;BME280;39768;54.148;12.174;2023-03-03T08:36:51;102216.63;;;6.18;100.00
53514;BME280;39768;54.148;12.174;2023-03-03T08:40:53;102209.09;;;6.32;100.00
53514;BME280;39768;54.148;12.174;2023-03-03T08:44:54;102210.97;;;6.36;100.00
53514;BME280;39768;54.148;12.174;2023-03-03T08:48:56;102206.50;;;6.33;100.00
53514;BME280;39768;54.148;12.174;2023-03-03T08:52:57;102213.00;;;6.81;100.00
53514;BME280;39768;54.148;12.174;2023-03-03T08:56:59;102206.34;;;6.62;100.00
53514;BME280;39768;54.148;12.174;2023-03-03T09:01:00;102217.19;;;7.46;100.00
53514;BME280;39768;54.148;12.174;2023-03-03T09:05:03;102221.53;;;7.44;100.00
53514;BME280;39768;54.148;12.174;2023-03-03T09:09:05;102220.09;;;7.57;100.00
53514;BME280;39768;54.148;12.174;2023-03-03T09:13:16;102216.25;;;7.83;100.00
53514;BME280;39768;54.148;12.174;2023-03-03T09:17:30;102208.28;;;7.82;100.00
53514;BME280;39768;54.148;12.174;2023-03-03T09:21:33;102212.88;;;7.90;100.00
53514;BME280;39768;54.148;12.174;2023-03-03T09:25:36;102207.13;;;8.11;100.00
53514;BME280;39768;54.148;12.174;2023-03-03T09:29:37;102205.31;;;8.08;100.00
53514;BME280;39768;54.148;12.174;2023-03-03T09:33:41;102188.81;;;8.22;100.00
53514;BME280;39768;54.148;12.174;2023-03-03T09:37:44;102190.44;;;8.13;100.00
53514;BME280;39768;54.148;12.174;2023-03-03T09:41:57;102203.38;;;8.00;100.00
53514;BME280;39768;54.148;12.174;2023-03-03T09:50:35;102204.59;;;8.17;100.00
53514;BME280;39768;54.148;12.174;2023-03-03T09:54:52;102198.38;;;8.13;100.00
53514;BME280;39768;54.148;12.174;2023-03-03T09:59:24;102188.69;;;8.14;100.00
53514;BME280;39768;54.148;12.174;2023-03-03T10:03:42;102180.47;;;8.44;100.00
53514;BME280;39768;54.148;12.174;2023-03-03T10:12:27;102184.38;;;8.21;100.00
53514;BME280;39768;54.148;12.174;2023-03-03T10:16:45;102199.03;;;8.48;100.00
53514;BME280;39768;54.148;12.174;2023-03-03T10:21:16;102207.41;;;8.25;100.00
53514;BME280;39768;54.148;12.174;2023-03-03T10:25:39;102201.91;;;8.59;100.00
53514;BME280;39768;54.148;12.174;2023-03-03T10:29:57;102198.84;;;8.38;100.00
53514;BME280;39768;54.148;12.174;2023-03-03T10:34:19;102194.56;;;8.43;100.00
53514;BME280;39768;54.148;12.174;2023-03-03T10:38:31;102190.03;;;8.37;100.00
53514;BME280;39768;54.148;12.174;2023-03-03T10:47:30;102201.19;;;8.69;100.00
53514;BME280;39768;54.148;12.174;2023-03-03T11:00:14;102207.00;;;7.24;100.00
53514;BME280;39768;54.148;12.174;2023-03-03T11:04:41;102204.50;;;6.92;100.00
53514;BME280;39768;54.148;12.174;2023-03-03T11:08:51;102204.84;;;6.71;100.00
53514;BME280;39768;54.148;12.174;2023-03-03T11:13:07;102197.38;;;6.55;100.00
53514;BME280;39768;54.148;12.174;2023-03-03T11:17:47;102190.56;;;6.63;100.00
53514;BME280;39768;54.148;12.174;2023-03-03T11:34:50;102212.19;;;6.17;100.00
53514;BME280;39768;54.148;12.174;2023-03-03T11:38:57;102210.81;;;6.31;100.00
53514;BME280;39768;54.148;12.174;2023-03-03T11:43:05;102202.19;;;6.06;100.00
53514;BME280;39768;54.148;12.174;2023-03-03T11:55:32;102184.84;;;6.14;100.00
53514;BME280;39768;54.148;12.174;2023-03-03T12:04:14;102188.59;;;6.23;100.00
53514;BME280;39768;54.148;12.174;2023-03-03T12:13:01;102173.19;;;6.38;100.00
53514;BME280;39768;54.148;12.174;2023-03-03T12:21:39;102174.13;;;6.41;100.00
53514;BME280;39768;54.148;12.174;2023-03-03T12:25:46;102156.03;;;6.90;100.00
53514;BME280;39768;54.148;12.174;2023-03-03T12:34:53;102152.59;;;6.24;100.00
53514;BME280;39768;54.148;12.174;2023-03-03T12:43:58;102135.88;;;6.58;100.00
53514;BME280;39768;54.148;12.174;2023-03-03T12:48:15;102125.47;;;6.62;100.00
53514;BME280;39768;54.148;12.174;2023-03-03T12:56:59;102119.31;;;6.63;100.00
53514;BME280;39768;54.148;12.174;2023-03-03T13:01:19;102105.75;;;7.23;100.00
53514;BME280;39768;54.148;12.174;2023-03-03T13:10:12;102094.63;;;7.38;100.00
53514;BME280;39768;54.148;12.174;2023-03-03T13:14:34;102097.75;;;6.45;100.00
53514;BME280;39768;54.148;12.174;2023-03-03T13:18:54;102075.72;;;6.79;100.00
53514;BME280;39768;54.148;12.174;2023-03-03T13:23:07;102072.59;;;6.97;100.00
53514;BME280;39768;54.148;12.174;2023-03-03T13:27:13;102061.41;;;7.08;100.00
53514;BME280;39768;54.148;12.174;2023-03-03T13:31:21;102046.03;;;7.31;100.00
53514;BME280;39768;54.148;12.174;2023-03-03T13:39:34;102047.97;;;6.98;100.00
53514;BME280;39768;54.148;12.174;2023-03-03T13:43:42;102041.00;;;7.01;100.00
53514;BME280;39768;54.148;12.174;2023-03-03T13:47:54;102048.50;;;7.22;100.00
53514;BME280;39768;54.148;12.174;2023-03-03T13:52:03;102042.75;;;7.41;100.00
53514;BME280;39768;54.148;12.174;2023-03-03T13:56:37;102026.66;;;7.31;100.00
53514;BME280;39768;54.148;12.174;2023-03-03T14:01:07;102028.78;;;7.49;100.00
53514;BME280;39768;54.148;12.174;2023-03-03T14:05:36;102016.88;;;7.72;100.00
53514;BME280;39768;54.148;12.174;2023-03-03T14:09:45;102025.66;;;7.69;100.00
53514;BME280;39768;54.148;12.174;2023-03-03T14:13:59;102024.47;;;7.54;100.00
53514;BME280;39768;54.148;12.174;2023-03-03T14:27:00;102002.97;;;7.82;99.98
53514;BME280;39768;54.148;12.174;2023-03-03T14:31:20;102005.34;;;7.67;100.00
53514;BME280;39768;54.148;12.174;2023-03-03T14:35:22;101995.00;;;8.32;99.17
53514;BME280;39768;54.148;12.174;2023-03-03T14:39:37;101993.47;;;7.45;100.00
53514;BME280;39768;54.148;12.174;2023-03-03T14:43:41;101989.78;;;7.35;100.00
53514;BME280;39768;54.148;12.174;2023-03-03T14:47:44;101973.09;;;7.86;100.00
53514;BME280;39768;54.148;12.174;2023-03-03T14:51:48;101970.28;;;7.77;100.00
53514;BME280;39768;54.148;12.174;2023-03-03T14:55:52;101967.34;;;8.11;99.83
53514;BME280;39768;54.148;12.174;2023-03-03T15:00:00;101963.41;;;7.88;99.84
53514;BME280;39768;54.148;12.174;2023-03-03T15:08:23;101944.59;;;8.24;95.87
53514;BME280;39768;54.148;12.174;2023-03-03T15:12:35;101946.44;;;8.28;97.16
53514;BME280;39768;54.148;12.174;2023-03-03T15:16:37;101944.09;;;8.48;95.99
53514;BME280;39768;54.148;12.174;2023-03-03T15:20:46;101932.13;;;8.17;96.34
53514;BME280;39768;54.148;12.174;2023-03-03T15:24:57;101927.72;;;8.14;96.97
53514;BME280;39768;54.148;12.174;2023-03-03T15:29:16;101921.84;;;8.34;97.04
53514;BME280;39768;54.148;12.174;2023-03-03T15:33:34;101908.50;;;8.26;95.49
53514;BME280;39768;54.148;12.174;2023-03-03T15:38:02;101907.69;;;8.32;93.18
53514;BME280;39768;54.148;12.174;2023-03-03T15:46:30;101895.78;;;8.64;93.50
53514;BME280;39768;54.148;12.174;2023-03-03T15:55:05;101870.97;;;8.55;91.86
53514;BME280;39768;54.148;12.174;2023-03-03T16:03:38;101871.97;;;8.64;92.26
53514;BME280;39768;54.148;12.174;2023-03-03T16:08:35;101871.22;;;8.74;90.95
53514;BME280;39768;54.148;12.174;2023-03-03T16:12:54;101849.81;;;7.93;95.79
53514;BME280;39768;54.148;12.174;2023-03-03T16:21:13;101854.78;;;7.71;98.36
53514;BME280;39768;54.148;12.174;2023-03-03T16:25:35;101858.53;;;7.87;98.89
53514;BME280;39768;54.148;12.174;2023-03-03T16:38:08;101860.72;;;8.16;97.98
53514;BME280;39768;54.148;12.174;2023-03-03T16:46:31;101861.19;;;7.89;99.41
53514;BME280;39768;54.148;12.174;2023-03-03T16:50:45;101855.81;;;7.83;100.00
53514;BME280;39768;54.148;12.174;2023-03-03T16:54:54;101849.25;;;7.56;100.00
53514;BME280;39768;54.148;12.174;2023-03-03T17:25:22;101825.63;;;7.14;100.00
53514;BME280;39768;54.148;12.174;2023-03-03T17:29:56;101815.63;;;7.48;100.00
53514;BME280;39768;54.148;12.174;2023-03-03T17:34:28;101813.59;;;7.31;100.00
53514;BME280;39768;54.148;12.174;2023-03-03T17:47:04;101819.28;;;7.57;100.00
53514;BME280;39768;54.148;12.174;2023-03-03T17:51:39;101809.47;;;7.49;100.00
53514;BME280;39768;54.148;12.174;2023-03-03T17:56:00;101810.50;;;7.58;100.00
53514;BME280;39768;54.148;12.174;2023-03-03T18:04:38;101811.00;;;7.34;100.00
53514;BME280;39768;54.148;12.174;2023-03-03T18:17:34;101804.81;;;6.81;100.00
53514;BME280;39768;54.148;12.174;2023-03-03T18:21:48;101804.97;;;7.41;100.00
53514;BME280;39768;54.148;12.174;2023-03-03T18:25:56;101804.09;;;7.44;100.00
53514;BME280;39768;54.148;12.174;2023-03-03T18:30:25;101790.59;;;6.75;100.00
53514;BME280;39768;54.148;12.174;2023-03-03T18:34:38;101792.31;;;6.72;100.00
53514;BME280;39768;54.148;12.174;2023-03-03T18:38:44;101787.03;;;6.72;100.00
53514;BME280;39768;54.148;12.174;2023-03-03T18:42:46;101782.75;;;6.78;100.00
53514;BME280;39768;54.148;12.174;2023-03-03T18:46:54;101775.72;;;6.78;100.00
53514;BME280;39768;54.148;12.174;2023-03-03T18:50:55;101776.03;;;6.98;100.00
53514;BME280;39768;54.148;12.174;2023-03-03T19:03:37;101770.84;;;6.53;100.00
53514;BME280;39768;54.148;12.174;2023-03-03T19:08:01;101758.53;;;6.55;100.00
53514;BME280;39768;54.148;12.174;2023-03-03T19:12:07;101761.88;;;6.45;100.00
53514;BME280;39768;54.148;12.174;2023-03-03T19:16:42;101746.19;;;6.51;100.00
53514;BME280;39768;54.148;12.174;2023-03-03T19:20:39;101738.28;;;6.51;100.00
53514;BME280;39768;54.148;12.174;2023-03-03T19:25:01;101736.19;;;6.34;100.00
53514;BME280;39768;54.148;12.174;2023-03-03T19:33:28;101716.81;;;6.32;100.00
53514;BME280;39768;54.148;12.174;2023-03-03T19:37:46;101735.09;;;6.25;100.00
53514;BME280;39768;54.148;12.174;2023-03-03T19:42:13;101722.06;;;6.31;100.00
53514;BME280;39768;54.148;12.174;2023-03-03T19:46:30;101715.69;;;6.20;100.00
53514;BME280;39768;54.148;12.174;2023-03-03T19:50:44;101707.34;;;6.44;100.00
53514;BME280;39768;54.148;12.174;2023-03-03T19:55:01;101684.91;;;6.65;100.00
53514;BME280;39768;54.148;12.174;2023-03-03T20:07:59;101668.28;;;6.72;100.00
53514;BME280;39768;54.148;12.174;2023-03-03T20:12:28;101673.00;;;6.92;100.00
53514;BME280;39768;54.148;12.174;2023-03-03T20:16:36;101666.31;;;7.12;100.00
53514;BME280;39768;54.148;12.174;2023-03-03T20:20:54;101679.56;;;7.18;100.00
53514;BME280;39768;54.148;12.174;2023-03-03T20:25:10;101682.56;;;6.85;100.00
53514;BME280;39768;54.148;12.174;2023-03-03T20:29:36;101696.59;;;6.83;100.00
53514;BME280;39768;54.148;12.174;2023-03-03T20:47:04;101690.28;;;6.25;100.00
53514;BME280;39768;54.148;12.174;2023-03-03T20:51:45;101691.59;;;6.47;100.00
53514;BME280;39768;54.148;12.174;2023-03-03T21:00:09;101692.16;;;6.79;100.00
53514;BME280;39768;54.148;12.174;2023-03-03T21:08:58;101700.81;;;6.71;100.00
53514;BME280;39768;54.148;12.174;2023-03-03T21:13:24;101681.91;;;6.97;100.00
53514;BME280;39768;54.148;12.174;2023-03-03T21:17:28;101681.66;;;6.83;100.00
53514;BME280;39768;54.148;12.174;2023-03-03T21:21:35;101672.22;;;6.96;100.00
53514;BME280;39768;54.148;12.174;2023-03-03T21:29:41;101672.63;;;6.69;100.00
53514;BME280;39768;54.148;12.174;2023-03-03T21:33:53;101659.09;;;7.02;100.00
53514;BME280;39768;54.148;12.174;2023-03-03T21:37:56;101649.47;;;7.05;100.00
53514;BME280;39768;54.148;12.174;2023-03-03T21:46:00;101651.75;;;6.84;100.00
53514;BME280;39768;54.148;12.174;2023-03-03T21:50:02;101642.09;;;6.85;100.00
53514;BME280;39768;54.148;12.174;2023-03-03T21:54:04;101629.59;;;6.73;100.00
53514;BME280;39768;54.148;12.174;2023-03-03T21:58:05;101624.94;;;6.57;100.00
53514;BME280;39768;54.148;12.174;2023-03-03T22:02:07;101640.97;;;6.69;100.00
53514;BME280;39768;54.148;12.174;2023-03-03T22:06:09;101638.59;;;6.86;100.00
53514;BME280;39768;54.148;12.174;2023-03-03T22:10:11;101646.44;;;6.80;100.00
53514;BME280;39768;54.148;12.174;2023-03-03T22:14:12;101636.78;;;6.82;100.00
53514;BME280;39768;54.148;12.174;2023-03-03T22:18:15;101634.19;;;6.86;100.00
53514;BME280;39768;54.148;12.174;2023-03-03T22:22:18;101619.97;;;6.75;100.00
53514;BME280;39768;54.148;12.174;2023-03-03T22:26:20;101610.25;;;6.72;100.00
53514;BME280;39768;54.148;12.174;2023-03-03T22:30:24;101617.97;;;6.60;100.00
53514;BME280;39768;54.148;12.174;2023-03-03T22:34:25;101607.25;;;6.50;100.00
53514;BME280;39768;54.148;12.174;2023-03-03T22:38:27;101607.41;;;6.60;100.00
53514;BME280;39768;54.148;12.174;2023-03-03T22:42:28;101611.25;;;6.81;100.00
53514;BME280;39768;54.148;12.174;2023-03-03T22:46:30;101608.56;;;6.78;100.00
53514;BME280;39768;54.148;12.174;2023-03-03T22:50:31;101596.38;;;6.87;100.00
53514;BME280;39768;54.148;12.174;2023-03-03T22:54:33;101605.91;;;6.76;100.00
53514;BME280;39768;54.148;12.174;2023-03-03T22:58:34;101599.56;;;6.63;100.00
53514;BME280;39768;54.148;12.174;2023-03-03T23:02:36;101616.69;;;6.91;100.00
53514;BME280;39768;54.148;12.174;2023-03-03T23:06:38;101600.94;;;6.96;100.00
53514;BME280;39768;54.148;12.174;2023-03-03T23:10:40;101608.66;;;6.82;100.00
53514;BME280;39768;54.148;12.174;2023-03-03T23:14:41;101596.31;;;6.83;100.00
53514;BME280;39768;54.148;12.174;2023-03-03T23:18:43;101603.25;;;6.75;100.00
53514;BME280;39768;54.148;12.174;2023-03-03T23:22:44;101597.25;;;6.86;100.00
53514;BME280;39768;54.148;12.174;2023-03-03T23:26:46;101596.38;;;6.86;100.00
53514;BME280;39768;54.148;12.174;2023-03-03T23:30:47;101584.34;;;7.06;100.00
53514;BME280;39768;54.148;12.174;2023-03-03T23:34:52;101573.75;;;7.03;100.00
53514;BME280;39768;54.148;12.174;2023-03-03T23:38:54;101579.94;;;7.05;100.00
53514;BME280;39768;54.148;12.174;2023-03-03T23:42:55;101579.03;;;7.03;100.00
53514;BME280;39768;54.148;12.174;2023-03-03T23:46:57;101575.31;;;6.90;100.00
53514;BME280;39768;54.148;12.174;2023-03-03T23:50:58;101573.66;;;6.98;100.00
53514;BME280;39768;54.148;12.174;2023-03-03T23:55:02;101569.50;;;7.16;100.00
53514;BME280;39768;54.148;12.174;2023-03-03T23:59:03;101568.63;;;7.12;100.00
